createdAt,value
2022-10-17T00:00:16.139Z,3.60
2022-10-17T00:02:42.487Z,3.78
2022-10-17T00:05:08.979Z,3.20
2022-10-17T00:07:35.338Z,4.25
2022-10-17T00:10:01.724Z,3.20
2022-10-17T00:12:28.130Z,3.40
2022-10-17T00:14:54.503Z,3.35
2022-10-17T00:17:20.867Z,3.80
2022-10-17T00:19:47.277Z,3.47
2022-10-17T00:22:14.752Z,4.15
2022-10-17T00:24:41.122Z,3.65
2022-10-17T00:27:07.988Z,4.00
2022-10-17T00:29:34.343Z,4.03
2022-10-17T00:32:00.688Z,4.50
2022-10-17T00:34:29.098Z,3.90
2022-10-17T00:36:55.436Z,4.50
2022-10-17T00:39:21.815Z,4.65
2022-10-17T00:41:48.189Z,4.07
2022-10-17T00:44:29.884Z,4.80
2022-10-17T00:47:06.462Z,4.07
2022-10-17T00:49:35.561Z,5.03
2022-10-17T00:52:15.812Z,4.68
2022-10-17T00:54:49.400Z,4.67
2022-10-17T00:57:16.811Z,4.50
2022-10-17T00:59:47.021Z,4.70
2022-10-17T01:02:16.339Z,4.32
2022-10-17T01:04:45.065Z,4.25
2022-10-17T01:07:11.406Z,4.30
2022-10-17T01:09:39.551Z,4.82
2022-10-17T01:12:16.738Z,4.35
2022-10-17T01:15:01.313Z,4.20
2022-10-17T01:17:58.015Z,4.00
2022-10-17T01:20:53.049Z,3.70
2022-10-17T01:23:41.048Z,4.47
2022-10-17T01:26:45.327Z,4.07
2022-10-17T01:29:28.206Z,5.47
2022-10-17T01:32:14.711Z,4.75
2022-10-17T01:34:48.172Z,4.90
2022-10-17T01:37:44.813Z,4.68
2022-10-17T01:40:27.186Z,4.70
2022-10-17T01:43:04.221Z,4.43
2022-10-17T01:45:48.918Z,5.07
2022-10-17T01:48:24.977Z,4.80
2022-10-17T01:51:06.487Z,4.25
2022-10-17T01:53:36.776Z,4.50
2022-10-17T01:56:06.983Z,4.55
2022-10-17T01:58:41.082Z,5.32
2022-10-17T02:01:11.023Z,4.87
2022-10-17T02:03:40.732Z,4.90
2022-10-17T02:06:07.834Z,4.57
2022-10-17T02:08:46.175Z,5.10
2022-10-17T02:11:14.836Z,5.80
2022-10-17T02:14:06.312Z,5.53
2022-10-17T02:16:35.583Z,5.60
2022-10-17T02:19:14.595Z,5.80
2022-10-17T02:22:18.569Z,6.13
2022-10-17T02:24:50.936Z,5.68
2022-10-17T02:27:37.330Z,6.20
2022-10-17T02:30:10.945Z,6.15
2022-10-17T02:32:48.110Z,6.32
2022-10-17T02:35:19.556Z,5.95
2022-10-17T02:37:47.700Z,5.57
2022-10-17T02:40:17.102Z,5.63
2022-10-17T02:42:45.535Z,5.50
2022-10-17T02:45:14.367Z,6.05
2022-10-17T02:47:54.135Z,6.43
2022-10-17T02:53:04.922Z,5.93
2022-10-17T02:55:36.104Z,6.00
2022-10-17T02:58:26.363Z,6.43
2022-10-17T03:00:53.038Z,5.60
2022-10-17T03:03:24.087Z,6.15
2022-10-17T03:05:50.614Z,5.80
2022-10-17T03:08:16.994Z,5.35
2022-10-17T03:10:43.355Z,6.15
2022-10-17T03:13:09.861Z,5.55
2022-10-17T03:15:36.396Z,6.03
2022-10-17T03:18:03.770Z,5.60
2022-10-17T03:20:30.523Z,5.88
2022-10-17T03:22:56.862Z,5.80
2022-10-17T03:25:23.228Z,5.57
2022-10-17T03:27:49.760Z,5.93
2022-10-17T03:30:16.226Z,5.43
2022-10-17T03:32:42.568Z,5.57
2022-10-17T03:35:14.009Z,5.57
2022-10-17T03:37:41.554Z,6.03
2022-10-17T03:40:08.297Z,5.35
2022-10-17T03:42:34.645Z,5.80
2022-10-17T03:45:01.011Z,5.93
2022-10-17T03:47:29.348Z,5.97
2022-10-17T03:49:55.899Z,5.57
2022-10-17T03:52:22.354Z,5.32
2022-10-17T03:54:50.121Z,6.27
2022-10-17T03:57:17.246Z,5.72
2022-10-17T03:59:43.591Z,5.43
2022-10-17T04:02:10.036Z,5.88
2022-10-17T04:04:36.462Z,5.38
2022-10-17T04:07:03.062Z,5.40
2022-10-17T04:09:29.417Z,5.55
2022-10-17T04:11:55.782Z,5.60
2022-10-17T04:14:22.178Z,5.70
2022-10-17T04:16:48.512Z,5.70
2022-10-17T04:19:14.933Z,5.40
2022-10-17T04:21:41.290Z,5.80
2022-10-17T04:24:10.796Z,5.38
2022-10-17T04:26:37.151Z,5.47
2022-10-17T04:29:03.668Z,6.18
2022-10-17T04:31:30.040Z,5.40
2022-10-17T04:33:56.654Z,5.90
2022-10-17T04:36:23.368Z,6.00
2022-10-17T04:38:49.711Z,5.50
2022-10-17T04:41:17.769Z,5.82
2022-10-17T04:43:47.058Z,5.23
2022-10-17T04:46:16.719Z,6.18
2022-10-17T04:48:43.216Z,5.20
2022-10-17T04:51:20.636Z,5.45
2022-10-17T04:53:49.642Z,6.22
2022-10-17T04:56:19.006Z,5.67
2022-10-17T04:58:45.875Z,7.53
2022-10-17T05:01:15.062Z,6.35
2022-10-17T05:03:42.311Z,5.70
2022-10-17T05:06:28.996Z,5.60
2022-10-17T05:08:55.673Z,6.00
2022-10-17T05:11:24.458Z,5.35
2022-10-17T05:14:01.663Z,5.13
2022-10-17T05:16:29.203Z,5.05
2022-10-17T05:18:57.701Z,5.57
2022-10-17T05:21:26.070Z,5.13
2022-10-17T05:23:53.243Z,5.32
2022-10-17T05:26:19.965Z,5.82
2022-10-17T05:28:46.487Z,5.22
2022-10-17T05:31:13.404Z,6.43
2022-10-17T05:33:40.496Z,4.97
2022-10-17T05:36:07.663Z,8.10
2022-10-17T05:38:34.426Z,5.85
2022-10-17T05:41:03.559Z,5.32
2022-10-17T05:43:30.259Z,5.60
2022-10-17T05:45:56.862Z,5.20
2022-10-17T05:48:24.076Z,4.93
2022-10-17T05:50:57.027Z,5.32
2022-10-17T05:53:23.414Z,5.53
2022-10-17T05:56:05.075Z,5.72
2022-10-17T05:58:49.295Z,5.50
2022-10-17T06:01:17.034Z,4.93
2022-10-17T06:03:43.559Z,4.95
2022-10-17T06:06:12.509Z,5.35
2022-10-17T06:08:39.203Z,5.40
2022-10-17T06:11:09.169Z,5.23
2022-10-17T06:13:36.775Z,5.60
2022-10-17T06:16:03.173Z,4.88
2022-10-17T06:18:29.589Z,5.22
2022-10-17T06:21:05.453Z,5.32
2022-10-17T06:23:32.494Z,4.33
2022-10-17T06:26:00.510Z,4.82
2022-10-17T06:28:55.898Z,4.97
2022-10-17T06:31:22.533Z,5.32
2022-10-17T06:33:48.919Z,5.55
2022-10-17T06:36:15.383Z,4.30
2022-10-17T06:38:41.917Z,4.78
2022-10-17T06:41:18.532Z,5.07
2022-10-17T06:43:46.876Z,4.57
2022-10-17T06:46:15.339Z,5.25
2022-10-17T06:48:41.962Z,4.60
2022-10-17T06:51:11.803Z,4.28
2022-10-17T06:53:39.912Z,4.93
2022-10-17T06:56:08.082Z,4.07
2022-10-17T07:02:24.936Z,4.37
2022-10-17T07:04:58.039Z,4.90
2022-10-17T07:07:58.842Z,5.57
2022-10-17T07:10:38.045Z,4.40
2022-10-17T07:13:06.113Z,4.90
2022-10-17T07:22:17.072Z,4.95
2022-10-17T07:25:04.779Z,4.40
2022-10-17T07:28:03.565Z,4.10
2022-10-17T07:33:47.796Z,4.20
2022-10-17T07:37:00.841Z,4.53
2022-10-17T07:39:27.314Z,4.72
2022-10-17T07:41:53.753Z,4.70
2022-10-17T07:44:20.402Z,4.23
2022-10-17T07:46:46.770Z,4.50
2022-10-17T07:49:13.200Z,4.93
2022-10-17T07:51:39.626Z,4.15
2022-10-17T07:54:06.473Z,5.20
2022-10-17T07:56:33.291Z,4.53
2022-10-17T08:12:34.377Z,4.17
2022-10-17T08:19:01.924Z,4.28
2022-10-17T08:22:14.772Z,5.35
2022-10-17T08:24:42.772Z,4.70
2022-10-17T08:27:11.465Z,4.20
2022-10-17T08:29:39.016Z,4.38
2022-10-17T08:32:08.952Z,5.00
2022-10-17T08:34:36.186Z,4.45
2022-10-17T08:37:02.901Z,5.18
2022-10-17T08:39:29.271Z,4.60
2022-10-17T08:42:33.457Z,4.70
2022-10-17T08:45:12.165Z,4.78
2022-10-17T08:47:42.506Z,4.53
2022-10-17T08:50:18.170Z,4.03
2022-10-17T08:53:12.613Z,4.80
2022-10-17T08:55:50.465Z,4.85
2022-10-17T08:58:32.851Z,4.65
2022-10-17T09:01:13.630Z,4.30
2022-10-17T09:03:43.460Z,4.53
2022-10-17T09:06:24.410Z,4.10
2022-10-17T09:12:28.563Z,5.03
2022-10-17T09:15:29.100Z,4.53
2022-10-17T09:18:00.921Z,4.90
2022-10-17T09:20:32.321Z,5.30
2022-10-17T09:23:02.802Z,5.20
2022-10-17T09:25:43.783Z,4.85
2022-10-17T09:28:10.285Z,4.40
2022-10-17T09:30:45.476Z,4.70
2022-10-17T09:33:34.735Z,4.43
2022-10-17T09:36:05.865Z,4.25
2022-10-17T09:38:51.792Z,4.35
2022-10-17T09:41:52.720Z,4.95
2022-10-17T09:44:33.966Z,4.28
2022-10-17T09:47:06.372Z,4.57
2022-10-17T09:49:35.829Z,4.78
2022-10-17T09:52:13.830Z,5.13
2022-10-17T09:54:47.063Z,5.47
2022-10-17T09:57:15.121Z,4.82
2022-10-17T09:59:57.170Z,4.17
2022-10-17T10:02:25.669Z,5.03
2022-10-17T10:05:08.547Z,5.10
2022-10-17T10:07:38.471Z,5.45
2022-10-17T10:10:14.294Z,5.32
2022-10-17T10:12:40.631Z,4.80
2022-10-17T10:15:33.887Z,5.25
2022-10-17T10:18:00.301Z,4.75
2022-10-17T10:20:37.844Z,4.50
2022-10-17T10:23:19.373Z,4.55
2022-10-17T10:25:56.652Z,4.20
2022-10-17T10:28:29.482Z,4.22
2022-10-17T10:30:57.550Z,4.75
2022-10-17T10:33:28.254Z,5.25
2022-10-17T10:36:04.315Z,4.10
2022-10-17T10:38:33.262Z,4.27
2022-10-17T10:41:07.331Z,4.53
2022-10-17T10:43:43.947Z,5.03
2022-10-17T10:46:39.669Z,4.55
2022-10-17T10:49:32.265Z,4.57
2022-10-17T10:52:02.153Z,3.90
2022-10-17T10:57:10.759Z,4.47
2022-10-17T10:59:47.051Z,3.60
2022-10-17T11:02:29.672Z,4.30
2022-10-17T11:05:03.420Z,3.93
2022-10-17T11:07:45.703Z,4.10
2022-10-17T11:10:22.749Z,3.58
2022-10-17T11:13:21.752Z,3.33
2022-10-17T11:15:55.648Z,3.53
2022-10-17T11:18:45.381Z,3.47
2022-10-17T11:21:28.777Z,3.60
2022-10-17T11:24:26.793Z,3.30
2022-10-17T11:27:01.114Z,3.50
2022-10-17T11:29:31.358Z,3.58
2022-10-17T11:32:04.412Z,2.97
2022-10-17T11:34:37.376Z,3.40
2022-10-17T11:37:21.622Z,3.20
2022-10-17T11:40:05.982Z,3.60
2022-10-17T11:42:50.250Z,3.45
2022-10-17T11:45:19.058Z,2.60
2022-10-17T11:47:49.723Z,4.00
2022-10-17T11:57:07.146Z,3.60
2022-10-17T12:00:09.036Z,3.73
2022-10-17T12:02:54.385Z,3.67
2022-10-17T12:05:47.707Z,4.00
2022-10-17T12:09:13.742Z,3.85
2022-10-17T12:11:56.527Z,4.43
2022-10-17T12:14:40.000Z,3.47
2022-10-17T12:17:21.846Z,3.55
2022-10-17T12:20:24.588Z,3.35
2022-10-17T12:23:03.285Z,3.38
2022-10-17T12:25:33.665Z,3.28
2022-10-17T12:28:06.287Z,3.23
2022-10-17T12:30:33.133Z,3.05
2022-10-17T12:33:22.938Z,3.33
2022-10-17T12:36:21.195Z,3.38
2022-10-17T12:39:02.845Z,3.88
2022-10-17T12:41:38.490Z,3.33
2022-10-17T12:44:14.313Z,3.60
2022-10-17T12:46:47.880Z,3.72
2022-10-17T12:49:40.004Z,3.60
2022-10-17T12:52:18.434Z,4.18
2022-10-17T12:55:00.354Z,3.73
2022-10-17T12:57:47.123Z,3.75
2022-10-17T13:00:25.356Z,4.15
2022-10-17T13:02:56.351Z,3.58
2022-10-17T13:05:34.080Z,4.10
2022-10-17T13:08:03.986Z,4.70
2022-10-17T13:10:35.060Z,4.30
2022-10-17T13:13:22.898Z,4.50
2022-10-17T13:15:51.886Z,4.50
2022-10-17T13:18:22.723Z,3.58
2022-10-17T13:21:06.853Z,3.30
2022-10-17T13:23:35.961Z,2.83
2022-10-17T13:26:06.893Z,2.80
2022-10-17T13:28:38.413Z,2.55
2022-10-17T13:31:06.365Z,3.38
2022-10-17T13:33:38.933Z,3.10
2022-10-17T13:36:15.684Z,2.70
2022-10-17T13:38:42.893Z,2.90
2022-10-17T13:44:02.490Z,2.60
2022-10-17T13:46:39.565Z,2.73
2022-10-17T13:49:25.800Z,2.75
2022-10-17T13:51:54.001Z,3.08
2022-10-17T13:54:37.751Z,3.35
2022-10-17T13:57:06.061Z,4.70
2022-10-17T13:59:38.635Z,3.60
2022-10-17T14:02:12.400Z,3.55
2022-10-17T14:05:04.094Z,4.10
2022-10-17T14:07:46.323Z,4.28
2022-10-17T14:10:41.139Z,3.88
2022-10-17T14:13:44.296Z,3.20
2022-10-17T14:16:10.876Z,3.92
2022-10-17T14:21:57.108Z,4.93
2022-10-17T14:24:23.760Z,3.95
2022-10-17T14:27:00.491Z,3.60
2022-10-17T14:29:28.360Z,3.80
2022-10-17T14:32:14.966Z,3.70
2022-10-17T14:34:41.710Z,3.75
2022-10-17T14:37:35.638Z,3.90
2022-10-17T14:40:04.849Z,4.10
2022-10-17T14:42:31.553Z,3.60
2022-10-17T14:45:21.316Z,3.72
2022-10-17T14:47:51.854Z,3.15
2022-10-17T14:50:25.114Z,3.70
2022-10-17T14:53:10.187Z,6.40
2022-10-17T14:55:38.692Z,3.95
2022-10-17T15:00:45.917Z,3.50
2022-10-17T15:03:13.787Z,3.60
2022-10-17T15:05:40.290Z,3.70
2022-10-17T15:08:14.408Z,3.88
2022-10-17T15:10:41.956Z,3.67
2022-10-17T15:13:28.001Z,3.65
2022-10-17T15:15:55.501Z,3.30
2022-10-17T15:18:21.925Z,4.00
2022-10-17T15:20:52.701Z,3.72
2022-10-17T15:23:27.060Z,4.10
2022-10-17T15:25:53.693Z,3.78
2022-10-17T15:28:20.134Z,4.05
2022-10-17T15:30:46.561Z,3.90
2022-10-17T15:33:13.012Z,5.18
2022-10-17T15:35:39.380Z,4.03
2022-10-17T15:38:07.101Z,3.40
2022-10-17T15:40:33.467Z,3.28
2022-10-17T15:42:59.877Z,3.27
2022-10-17T15:45:26.366Z,3.55
2022-10-17T15:47:55.377Z,3.13
2022-10-17T15:50:21.853Z,3.55
2022-10-17T15:52:52.494Z,3.45
2022-10-17T15:55:19.861Z,3.43
2022-10-17T15:57:48.139Z,3.65
2022-10-17T16:00:20.700Z,4.45
2022-10-17T16:02:47.884Z,3.20
2022-10-17T16:05:18.172Z,3.85
2022-10-17T16:07:46.717Z,3.63
2022-10-17T16:10:14.150Z,3.55
2022-10-17T16:12:41.299Z,3.33
2022-10-17T16:15:14.926Z,3.75
2022-10-17T16:17:41.675Z,3.30
2022-10-17T16:20:08.470Z,3.40
2022-10-17T16:22:38.458Z,3.90
2022-10-17T16:25:10.164Z,3.40
2022-10-17T16:27:37.753Z,3.53
2022-10-17T16:30:06.398Z,4.40
2022-10-17T16:32:33.414Z,3.50
2022-10-17T16:35:00.020Z,3.95
2022-10-17T16:37:27.152Z,3.58
2022-10-17T16:39:53.639Z,3.60
2022-10-17T16:42:20.596Z,8.10
2022-10-17T16:44:48.409Z,5.43
2022-10-17T16:47:15.203Z,4.50
2022-10-17T16:49:44.409Z,4.15
2022-10-17T16:52:12.171Z,3.97
2022-10-17T16:54:38.618Z,3.70
2022-10-17T16:57:04.989Z,3.63
2022-10-17T16:59:31.373Z,3.67
2022-10-17T17:01:57.700Z,3.65
2022-10-17T17:04:24.200Z,3.38
2022-10-17T17:06:50.573Z,3.38
2022-10-17T17:09:17.077Z,3.10
2022-10-17T17:11:43.432Z,3.42
2022-10-17T17:14:10.840Z,3.63
2022-10-17T17:16:37.237Z,3.38
2022-10-17T17:19:07.072Z,3.92
2022-10-17T17:21:34.631Z,4.00
2022-10-17T17:24:02.253Z,3.78
2022-10-17T17:26:32.572Z,4.05
2022-10-17T17:29:00.114Z,4.40
2022-10-17T17:31:29.007Z,4.20
2022-10-17T17:36:29.812Z,4.45
2022-10-17T17:38:58.831Z,4.97
2022-10-17T17:41:26.229Z,5.13
2022-10-17T17:43:52.792Z,4.70
2022-10-17T17:46:21.057Z,5.20
2022-10-17T17:48:48.947Z,4.97
2022-10-17T17:51:18.949Z,5.20
2022-10-17T17:53:45.814Z,4.90
2022-10-17T17:56:14.838Z,5.45
2022-10-17T17:58:45.794Z,4.67
2022-10-17T18:01:19.692Z,4.78
2022-10-17T18:03:46.816Z,4.85
2022-10-17T18:06:13.829Z,5.18
2022-10-17T18:08:43.328Z,15.40
2022-10-17T18:11:09.783Z,5.07
2022-10-17T18:13:36.258Z,8.57
2022-10-17T18:16:02.827Z,10.35
2022-10-17T18:18:30.454Z,6.55
2022-10-17T18:20:56.822Z,5.88
2022-10-17T18:23:23.736Z,6.00
2022-10-17T18:25:58.359Z,5.88
2022-10-17T18:28:25.674Z,6.07
2022-10-17T18:30:52.158Z,7.50
2022-10-17T18:33:18.941Z,6.68
2022-10-17T18:35:45.878Z,6.33
2022-10-17T18:38:12.468Z,7.50
2022-10-17T18:40:38.941Z,7.15
2022-10-17T18:43:05.328Z,6.88
2022-10-17T18:45:32.173Z,9.68
2022-10-17T18:47:58.566Z,7.77
2022-10-17T18:50:25.577Z,6.97
2022-10-17T18:52:51.939Z,5.85
2022-10-17T18:55:20.423Z,7.15
2022-10-17T18:57:49.176Z,7.53
2022-10-17T19:00:17.186Z,6.77
2022-10-17T19:02:43.594Z,7.32
2022-10-17T19:05:10.122Z,7.22
2022-10-17T19:07:36.614Z,7.55
2022-10-17T19:10:03.979Z,7.88
2022-10-17T19:12:30.557Z,6.60
2022-10-17T19:14:57.322Z,7.25
2022-10-17T19:17:23.639Z,6.75
2022-10-17T19:19:52.128Z,6.68
2022-10-17T19:22:18.657Z,6.78
2022-10-17T19:24:46.214Z,6.97
2022-10-17T19:27:12.601Z,6.90
2022-10-17T19:29:43.410Z,7.28
2022-10-17T19:32:15.624Z,7.05
2022-10-17T19:34:44.516Z,7.07
2022-10-17T19:37:11.172Z,7.20
2022-10-17T19:39:37.696Z,7.38
2022-10-17T19:42:06.742Z,7.05
2022-10-17T19:44:34.053Z,6.50
2022-10-17T19:47:00.430Z,7.68
2022-10-17T19:49:26.867Z,7.70
2022-10-17T19:51:53.246Z,7.95
2022-10-17T19:54:20.287Z,7.25
2022-10-17T19:56:46.906Z,8.63
2022-10-17T19:59:15.064Z,7.88
2022-10-17T20:01:41.728Z,9.37
2022-10-17T20:04:10.705Z,9.95
2022-10-17T20:06:37.309Z,7.07
2022-10-17T20:09:05.237Z,5.38
2022-10-17T20:11:32.013Z,7.70
2022-10-17T20:14:00.106Z,7.93
2022-10-17T20:16:29.068Z,8.90
2022-10-17T20:18:57.287Z,8.55
2022-10-17T20:21:35.135Z,7.97
2022-10-17T20:24:02.913Z,7.20
2022-10-17T20:26:38.988Z,6.77
2022-10-17T20:29:15.300Z,7.75
2022-10-17T20:31:43.566Z,6.70
2022-10-17T20:34:13.662Z,7.45
2022-10-17T20:36:40.657Z,7.13
2022-10-17T20:39:07.424Z,11.40
2022-10-17T20:41:34.475Z,7.35
2022-10-17T20:44:00.993Z,5.60
2022-10-17T20:46:36.871Z,4.30
2022-10-17T20:49:05.611Z,7.43
2022-10-17T20:51:31.976Z,6.63
2022-10-17T20:53:58.574Z,7.97
2022-10-17T20:56:27.194Z,7.93
2022-10-17T20:58:59.721Z,7.03
2022-10-17T21:01:27.239Z,10.02
2022-10-17T21:03:54.033Z,8.97
2022-10-17T21:06:21.343Z,8.75
2022-10-17T21:08:48.456Z,8.57
2022-10-17T21:11:22.045Z,8.73
2022-10-17T21:13:54.813Z,8.60
2022-10-17T21:16:21.186Z,8.77
2022-10-17T21:18:49.294Z,8.95
2022-10-17T21:21:18.654Z,9.35
2022-10-17T21:23:47.336Z,8.77
2022-10-17T21:26:14.677Z,8.20
2022-10-17T21:28:42.694Z,8.27
2022-10-17T21:31:11.420Z,8.50
2022-10-17T21:33:38.556Z,8.40
2022-10-17T21:36:05.546Z,10.65
2022-10-17T21:38:33.960Z,9.18
2022-10-17T21:41:00.561Z,8.80
2022-10-17T21:43:26.945Z,7.80
2022-10-17T21:45:53.292Z,7.88
2022-10-17T21:48:19.695Z,9.18
2022-10-17T21:50:46.057Z,7.97
2022-10-17T21:53:12.473Z,8.40
2022-10-17T21:55:38.856Z,7.38
2022-10-17T21:58:05.297Z,8.38
2022-10-17T22:00:31.690Z,7.50
2022-10-17T22:02:58.031Z,7.70
2022-10-17T22:05:24.563Z,7.67
2022-10-17T22:07:50.911Z,7.47
2022-10-17T22:10:17.346Z,7.45
2022-10-17T22:12:43.731Z,6.70
2022-10-17T22:15:10.234Z,6.80
2022-10-17T22:17:36.637Z,4.23
2022-10-17T22:20:03.254Z,3.90
2022-10-17T22:22:30.473Z,4.05
2022-10-17T22:24:56.815Z,3.85
2022-10-17T22:27:23.183Z,4.30
2022-10-17T22:29:49.516Z,4.10
2022-10-17T22:32:20.048Z,3.53
2022-10-17T22:34:48.844Z,3.65
2022-10-17T22:37:15.429Z,3.03
2022-10-17T22:39:41.818Z,3.00
2022-10-17T22:42:08.195Z,3.47
2022-10-17T22:44:34.558Z,4.57
2022-10-17T22:47:00.927Z,4.10
2022-10-17T22:49:27.412Z,4.53
2022-10-17T22:51:53.737Z,5.50
2022-10-17T22:54:20.075Z,4.87
2022-10-17T22:56:46.402Z,6.35
2022-10-17T22:59:12.748Z,6.80
2022-10-17T23:01:39.129Z,8.85
2022-10-17T23:04:05.576Z,4.57
2022-10-17T23:06:32.121Z,4.60
2022-10-17T23:08:58.860Z,5.32
2022-10-17T23:11:25.319Z,5.35
2022-10-17T23:13:51.671Z,5.55
2022-10-17T23:16:18.059Z,5.47
2022-10-17T23:18:44.414Z,4.73
2022-10-17T23:21:11.693Z,4.50
2022-10-17T23:23:38.092Z,5.18
2022-10-17T23:26:14.434Z,3.90
2022-10-17T23:28:42.195Z,5.28
2022-10-17T23:31:16.673Z,4.20
2022-10-17T23:33:44.924Z,3.83
2022-10-17T23:36:14.125Z,3.97
2022-10-17T23:38:41.762Z,3.47
2022-10-17T23:41:08.743Z,4.00
2022-10-17T23:43:35.171Z,3.93
2022-10-17T23:46:02.824Z,3.88
2022-10-17T23:48:29.570Z,3.75
2022-10-17T23:50:56.066Z,3.78
2022-10-17T23:53:23.973Z,3.88
2022-10-17T23:55:51.385Z,3.37
2022-10-17T23:58:18.334Z,3.88
